Time;durP1;ratioP1;P1;durP2;ratioP2;P2;SDS_P1;SDS_P2;PMS_P1;PMS_P2;Temp;Humidity;BMP_temperature;BMP_pressure;BME280_temperature;BME280_humidity;BME280_pressure;Samples;Min_cycle;Max_cycle;Signal;HPM_P1;HPM_P2
2021/12/18 00:01:26;;;;;;;20.77;17.30;;;6.80;99.90;;;;;;5013842;28;20404;-60
2021/12/18 00:03:52;;;;;;;21.83;18.60;;;6.90;99.90;;;;;;5014172;28;20189;-60
2021/12/18 00:06:18;;;;;;;22.50;18.73;;;7.00;99.90;;;;;;5013900;28;20795;-60
2021/12/18 00:08:44;;;;;;;23.33;19.20;;;7.10;99.90;;;;;;5014600;28;20791;-62
2021/12/18 00:11:11;;;;;;;22.40;18.83;;;7.10;99.90;;;;;;5014818;28;20496;-60
2021/12/18 00:13:37;;;;;;;23.33;20.07;;;7.00;99.90;;;;;;5013967;28;20463;-62
2021/12/18 00:16:03;;;;;;;22.57;19.13;;;6.60;99.90;;;;;;5013304;28;20546;-62
2021/12/18 00:18:30;;;;;;;23.27;19.27;;;6.60;99.90;;;;;;5013777;28;20942;-62
2021/12/18 00:20:58;;;;;;;23.93;20.43;;;6.70;99.90;;;;;;5013109;28;20411;-58
2021/12/18 00:23:24;;;;;;;23.20;18.73;;;6.70;99.90;;;;;;5013849;28;20461;-62
2021/12/18 00:25:49;;;;;;;23.33;19.60;;;6.70;99.90;;;;;;5013672;28;20779;-61
2021/12/18 00:28:15;;;;;;;21.40;18.43;;;6.70;99.90;;;;;;5013321;28;20422;-61
2021/12/18 00:30:41;;;;;;;23.27;19.37;;;6.40;99.90;;;;;;5013402;28;20262;-61
2021/12/18 00:33:07;;;;;;;22.83;20.40;;;6.50;99.90;;;;;;5013769;28;20178;-61
2021/12/18 00:35:33;;;;;;;23.50;19.80;;;6.50;99.90;;;;;;5013664;28;20197;-60
2021/12/18 00:38:04;;;;;;;23.57;19.80;;;6.50;99.90;;;;;;5014080;28;20438;-61
2021/12/18 00:40:42;;;;;;;24.67;21.03;;;6.40;99.90;;;;;;5014251;28;20412;-61
2021/12/18 00:43:22;;;;;;;23.80;20.30;;;6.10;99.90;;;;;;5014221;28;20388;-60
2021/12/18 00:45:48;;;;;;;25.97;20.10;;;5.80;99.90;;;;;;5013751;28;20880;-62
2021/12/18 00:48:13;;;;;;;22.10;18.97;;;5.90;99.90;;;;;;5013798;28;20474;-61
2021/12/18 00:50:39;;;;;;;26.10;20.43;;;5.80;99.90;;;;;;5016762;28;20665;-62
2021/12/18 00:53:04;;;;;;;22.80;17.87;;;5.60;99.90;;;;;;5017344;28;20591;-62
2021/12/18 00:55:30;;;;;;;23.10;20.30;;;5.80;99.90;;;;;;5017231;28;20205;-62
2021/12/18 00:57:55;;;;;;;22.57;18.97;;;6.00;99.90;;;;;;5016971;28;20242;-62
2021/12/18 01:00:24;;;;;;;24.00;19.90;;;6.20;99.90;;;;;;5016901;28;20279;-60
2021/12/18 01:02:53;;;;;;;20.80;17.77;;;6.20;99.90;;;;;;5015557;28;20176;-61
2021/12/18 01:05:19;;;;;;;20.60;17.93;;;5.90;99.90;;;;;;5016573;28;20422;-62
2021/12/18 01:07:45;;;;;;;20.57;17.00;;;6.00;99.90;;;;;;5011752;28;20427;-61
2021/12/18 01:12:51;;;;;;;22.23;19.57;;;6.10;99.90;;;;;;4997729;28;20160;-61
2021/12/18 01:15:22;;;;;;;23.13;18.60;;;6.10;99.90;;;;;;4997357;28;20419;-62
2021/12/18 01:23:17;;;;;;;24.77;20.30;;;6.20;99.90;;;;;;5016955;28;20387;-62
2021/12/18 01:25:43;;;;;;;24.43;19.17;;;6.10;99.90;;;;;;5016276;28;20504;-60
2021/12/18 01:28:09;;;;;;;21.80;19.40;;;6.20;99.90;;;;;;5011490;28;20267;-60
2021/12/18 01:30:34;;;;;;;24.40;19.47;;;6.20;99.90;;;;;;4996513;28;20275;-61
2021/12/18 01:33:00;;;;;;;23.20;20.03;;;6.30;99.90;;;;;;4997110;28;20185;-60
2021/12/18 01:35:26;;;;;;;24.17;20.13;;;6.20;99.90;;;;;;4996472;28;20449;-52
2021/12/18 01:37:52;;;;;;;22.57;19.00;;;5.90;99.90;;;;;;4996913;28;20429;-53
2021/12/18 01:40:21;;;;;;;23.67;19.83;;;5.80;99.90;;;;;;4996724;28;20180;-60
2021/12/18 01:53:13;;;;;;;26.83;20.73;;;5.80;99.90;;;;;;4996295;28;20471;-56
2021/12/18 01:55:40;;;;;;;24.30;19.87;;;5.90;99.90;;;;;;4996738;28;20502;-55
2021/12/18 01:58:07;;;;;;;24.17;20.57;;;5.70;99.90;;;;;;4996456;28;20975;-55
2021/12/18 02:00:40;;;;;;;27.70;22.00;;;5.50;99.90;;;;;;4996112;28;20408;-61
2021/12/18 02:03:06;;;;;;;26.27;22.30;;;5.20;99.90;;;;;;4996420;28;20779;-61
2021/12/18 02:05:32;;;;;;;29.13;21.93;;;5.20;99.90;;;;;;4995730;28;20404;-56
2021/12/18 02:07:58;;;;;;;25.50;20.23;;;5.30;99.90;;;;;;4996083;28;20440;-52
2021/12/18 02:10:28;;;;;;;27.00;21.37;;;5.50;99.90;;;;;;4995965;28;20175;-53
2021/12/18 02:20:54;;;;;;;24.20;19.87;;;5.50;99.90;;;;;;5010328;28;20419;-53
2021/12/18 02:23:20;;;;;;;25.83;18.97;;;5.70;99.90;;;;;;5008655;28;20449;-55
2021/12/18 02:25:46;;;;;;;24.87;19.97;;;5.90;99.90;;;;;;4995791;28;20648;-54
2021/12/18 02:28:32;;;;;;;23.63;19.87;;;6.00;99.90;;;;;;4995584;28;20543;-55
2021/12/18 02:30:58;;;;;;;26.17;20.73;;;5.80;99.90;;;;;;4996348;28;20388;-53
2021/12/18 02:33:26;;;;;;;26.93;20.37;;;5.60;99.90;;;;;;4995419;28;20412;-54
2021/12/18 02:35:54;;;;;;;23.70;18.50;;;5.70;99.90;;;;;;4995220;28;20460;-54
2021/12/18 02:44:04;;;;;;;22.97;18.13;;;5.50;99.90;;;;;;4995887;28;20400;-52
2021/12/18 02:46:29;;;;;;;24.20;19.60;;;5.50;99.90;;;;;;4995246;28;20428;-53
2021/12/18 02:48:57;;;;;;;22.57;17.87;;;5.50;99.90;;;;;;4993222;28;20420;-52
2021/12/18 02:51:23;;;;;;;21.20;17.50;;;5.70;99.90;;;;;;5000607;28;20174;-54
2021/12/18 02:53:52;;;;;;;21.47;19.00;;;5.80;99.90;;;;;;4994649;28;20434;-52
2021/12/18 02:56:23;;;;;;;25.23;19.60;;;5.90;99.90;;;;;;4993852;28;20498;-54
2021/12/18 02:58:51;;;;;;;29.73;22.73;;;5.70;99.90;;;;;;4994865;28;20412;-55
2021/12/18 03:01:24;;;;;;;26.43;20.63;;;5.40;99.90;;;;;;4994862;28;20437;-52
2021/12/18 03:03:50;;;;;;;23.50;19.37;;;5.20;99.90;;;;;;4995631;28;20392;-52
2021/12/18 03:27:21;;;;;;;28.57;22.33;;;5.70;99.90;;;;;;4975721;28;20437;-57
2021/12/18 03:29:48;;;;;;;27.80;21.23;;;5.80;99.90;;;;;;4976614;28;20413;-56
2021/12/18 03:32:14;;;;;;;28.00;21.87;;;5.40;99.90;;;;;;4975340;28;20396;-57
2021/12/18 03:34:39;;;;;;;23.93;19.13;;;5.40;99.90;;;;;;4975890;28;20459;-58
2021/12/18 03:37:05;;;;;;;23.63;17.90;;;5.50;99.90;;;;;;4976389;28;20460;-58
2021/12/18 03:39:31;;;;;;;22.93;18.53;;;5.40;99.90;;;;;;4977738;28;20176;-58
2021/12/18 03:41:57;;;;;;;27.63;21.73;;;5.50;99.90;;;;;;4977903;28;20165;-58
2021/12/18 03:44:22;;;;;;;24.50;20.03;;;5.40;99.90;;;;;;4976424;28;20176;-57
2021/12/18 03:46:49;;;;;;;27.53;20.87;;;5.30;99.90;;;;;;4976154;28;20196;-56
2021/12/18 03:49:15;;;;;;;24.67;19.67;;;5.30;99.90;;;;;;4974407;28;20177;-56
2021/12/18 03:51:40;;;;;;;25.53;18.87;;;5.10;99.90;;;;;;4974298;28;20416;-55
2021/12/18 03:54:06;;;;;;;27.23;20.53;;;5.20;99.90;;;;;;4973746;28;20223;-54
2021/12/18 03:56:32;;;;;;;30.30;22.37;;;5.20;99.90;;;;;;4975049;28;20193;-58
2021/12/18 03:58:58;;;;;;;26.63;19.77;;;5.20;99.90;;;;;;4971976;28;20175;-57
2021/12/18 04:01:25;;;;;;;26.47;19.67;;;5.40;99.90;;;;;;4974810;28;20428;-55
2021/12/18 04:03:51;;;;;;;28.30;21.30;;;5.00;99.90;;;;;;4973648;28;20196;-57
2021/12/18 04:06:17;;;;;;;23.73;18.50;;;4.80;99.90;;;;;;4974907;28;20413;-54
2021/12/18 04:08:42;;;;;;;26.43;19.63;;;4.80;99.90;;;;;;4974549;28;20448;-54
2021/12/18 04:11:08;;;;;;;26.90;19.93;;;4.80;99.90;;;;;;4974017;28;20173;-58
2021/12/18 04:13:34;;;;;;;27.47;19.80;;;4.70;99.90;;;;;;4973899;28;20598;-56
2021/12/18 04:16:00;;;;;;;24.53;18.33;;;4.40;99.90;;;;;;4975011;28;20498;-57
2021/12/18 04:18:26;;;;;;;26.40;19.23;;;4.50;99.90;;;;;;4982147;28;20216;-58
2021/12/18 04:20:52;;;;;;;27.00;18.70;;;4.60;99.90;;;;;;4976773;28;20177;-57
2021/12/18 04:23:17;;;;;;;23.73;16.77;;;4.60;99.90;;;;;;4975099;28;20212;-58
2021/12/18 04:25:44;;;;;;;22.70;17.43;;;4.60;99.90;;;;;;4978768;28;20436;-56
2021/12/18 04:28:09;;;;;;;28.23;18.80;;;4.70;99.90;;;;;;4978752;28;20201;-53
2021/12/18 04:30:35;;;;;;;25.83;18.33;;;4.80;99.90;;;;;;4978551;28;20415;-58
2021/12/18 04:33:01;;;;;;;25.50;18.50;;;4.90;99.90;;;;;;4978358;28;20355;-58
2021/12/18 04:35:30;;;;;;;26.70;18.77;;;4.80;99.90;;;;;;4978688;28;20448;-54
2021/12/18 04:37:56;;;;;;;24.80;17.47;;;4.80;99.90;;;;;;4978241;28;20475;-58
2021/12/18 04:40:25;;;;;;;26.33;19.47;;;5.00;99.90;;;;;;4978362;28;20902;-56
2021/12/18 04:42:53;;;;;;;26.03;18.20;;;5.00;99.90;;;;;;4978372;28;20412;-56
2021/12/18 04:45:18;;;;;;;24.10;17.43;;;4.90;99.90;;;;;;4978364;28;20446;-56
2021/12/18 04:47:44;;;;;;;22.40;17.30;;;5.10;99.90;;;;;;4980313;28;20421;-57
2021/12/18 04:50:10;;;;;;;26.67;17.87;;;4.80;99.90;;;;;;4978221;28;20555;-56
2021/12/18 04:52:36;;;;;;;24.40;16.63;;;4.70;99.90;;;;;;4977849;28;20223;-57
2021/12/18 04:55:04;;;;;;;20.97;14.37;;;4.70;99.90;;;;;;4978431;28;20224;-55
2021/12/18 04:57:30;;;;;;;23.97;15.60;;;4.70;99.90;;;;;;4977842;28;20499;-58
2021/12/18 04:59:56;;;;;;;23.43;16.47;;;4.70;99.90;;;;;;4976786;28;20884;-58
2021/12/18 05:02:25;;;;;;;21.80;15.97;;;4.80;99.90;;;;;;4977944;28;20180;-53
2021/12/18 05:04:52;;;;;;;26.00;18.40;;;4.70;99.90;;;;;;4978354;28;20408;-56
2021/12/18 05:07:19;;;;;;;25.00;16.90;;;4.50;99.90;;;;;;4977836;28;21020;-58
2021/12/18 05:09:44;;;;;;;26.47;18.27;;;4.60;99.90;;;;;;4977338;28;20507;-58
2021/12/18 05:12:11;;;;;;;27.03;18.00;;;4.60;99.90;;;;;;4975886;28;20527;-57
2021/12/18 05:14:37;;;;;;;23.27;16.27;;;4.60;99.90;;;;;;4978148;28;20528;-56
2021/12/18 05:17:03;;;;;;;26.00;18.30;;;4.70;99.90;;;;;;4977374;28;20475;-58
2021/12/18 05:19:28;;;;;;;20.80;16.00;;;4.70;99.90;;;;;;4987781;28;20471;-58
2021/12/18 05:21:54;;;;;;;21.17;15.87;;;4.60;99.90;;;;;;4977954;28;20662;-56
2021/12/18 05:24:20;;;;;;;23.27;15.80;;;4.40;99.90;;;;;;4977909;28;20181;-55
2021/12/18 05:26:45;;;;;;;21.27;15.30;;;4.10;99.90;;;;;;4992943;28;20199;-58
2021/12/18 05:29:11;;;;;;;27.70;18.07;;;3.80;99.90;;;;;;4997156;28;20172;-57
2021/12/18 05:31:38;;;;;;;20.10;14.60;;;3.80;99.90;;;;;;4997674;28;20169;-58
2021/12/18 05:34:04;;;;;;;22.90;16.67;;;3.90;99.90;;;;;;4997229;28;20172;-55
2021/12/18 05:37:01;;;;;;;25.07;17.73;;;4.10;99.90;;;;;;4996839;28;20459;-57
2021/12/18 05:39:29;;;;;;;25.40;16.87;;;4.10;99.90;;;;;;4998416;28;20893;-57
2021/12/18 05:41:57;;;;;;;21.93;15.97;;;4.20;99.90;;;;;;4997643;28;20423;-58
2021/12/18 05:44:25;;;;;;;22.70;15.90;;;4.40;99.90;;;;;;4997367;28;20462;-58
2021/12/18 05:46:52;;;;;;;22.70;16.50;;;4.60;99.90;;;;;;4996701;28;20439;-58
2021/12/18 05:49:18;;;;;;;20.53;15.57;;;4.60;99.90;;;;;;4982928;28;20424;-59
2021/12/18 05:51:45;;;;;;;23.30;17.07;;;4.70;99.90;;;;;;4976202;28;20409;-59
2021/12/18 05:54:12;;;;;;;21.80;16.20;;;4.70;99.90;;;;;;4976254;28;20416;-56
2021/12/18 05:56:38;;;;;;;20.70;15.13;;;4.80;99.90;;;;;;4977085;28;20468;-59
2021/12/18 05:59:05;;;;;;;22.17;14.77;;;4.90;99.90;;;;;;4977763;28;20463;-58
2021/12/18 06:01:32;;;;;;;24.60;16.63;;;4.90;99.90;;;;;;4977565;28;20419;-58
2021/12/18 06:03:58;;;;;;;24.73;18.20;;;4.70;99.90;;;;;;4975921;28;20409;-58
2021/12/18 06:06:25;;;;;;;25.63;18.93;;;4.70;99.90;;;;;;4976254;28;20427;-59
2021/12/18 06:08:51;;;;;;;20.17;16.50;;;4.60;99.90;;;;;;4977660;28;20447;-58
2021/12/18 06:11:19;;;;;;;21.80;16.40;;;4.60;99.90;;;;;;4975918;28;20480;-59
2021/12/18 06:13:48;;;;;;;24.60;16.43;;;4.50;99.90;;;;;;4961474;28;20529;-58
2021/12/18 06:16:15;;;;;;;25.17;17.43;;;4.50;99.90;;;;;;4957885;28;20480;-57
2021/12/18 06:18:44;;;;;;;23.13;16.53;;;4.50;99.90;;;;;;4977813;28;20420;-56
2021/12/18 06:21:15;;;;;;;19.20;14.77;;;4.70;99.90;;;;;;4996646;28;20436;-57
2021/12/18 06:23:41;;;;;;;25.27;16.67;;;4.70;99.90;;;;;;4996789;28;20757;-57
2021/12/18 06:26:07;;;;;;;22.57;15.77;;;4.70;99.90;;;;;;4996786;28;20404;-55
2021/12/18 06:28:33;;;;;;;21.67;15.10;;;4.50;99.90;;;;;;4996665;28;20474;-56
2021/12/18 06:31:01;;;;;;;22.97;15.67;;;4.20;99.90;;;;;;4996906;28;20257;-58
2021/12/18 06:33:27;;;;;;;20.83;15.53;;;4.10;99.90;;;;;;4996055;28;20183;-57
2021/12/18 06:35:52;;;;;;;21.10;15.57;;;4.30;99.90;;;;;;4996536;28;20971;-57
2021/12/18 06:38:18;;;;;;;22.93;15.70;;;4.40;99.90;;;;;;4996210;28;20511;-58
2021/12/18 06:40:44;;;;;;;16.87;12.50;;;4.60;99.90;;;;;;4996345;28;20172;-55
2021/12/18 06:43:10;;;;;;;16.20;11.47;;;4.50;99.90;;;;;;4996575;28;20180;-58
2021/12/18 06:45:35;;;;;;;15.20;11.70;;;4.50;99.90;;;;;;4996665;28;20176;-58
2021/12/18 06:48:01;;;;;;;17.17;12.53;;;4.60;99.90;;;;;;4992901;28;20448;-58
2021/12/18 06:50:27;;;;;;;18.00;12.47;;;4.40;99.90;;;;;;4975270;28;20181;-58
2021/12/18 06:52:52;;;;;;;15.67;11.70;;;4.40;99.90;;;;;;4976370;28;20260;-57
2021/12/18 06:55:18;;;;;;;18.30;12.50;;;4.50;99.90;;;;;;4977502;28;20459;-59
2021/12/18 06:57:44;;;;;;;18.27;13.17;;;4.60;99.90;;;;;;4976964;28;20280;-57
2021/12/18 07:00:12;;;;;;;15.70;11.43;;;4.80;99.90;;;;;;4976559;28;20173;-59
2021/12/18 07:02:38;;;;;;;18.20;12.40;;;4.90;99.90;;;;;;4976210;28;20193;-58
2021/12/18 07:05:05;;;;;;;20.33;12.47;;;4.90;99.90;;;;;;4976569;28;20921;-59
2021/12/18 07:07:31;;;;;;;14.90;11.53;;;4.80;99.90;;;;;;4977263;28;20436;-56
2021/12/18 07:09:56;;;;;;;17.73;12.30;;;4.80;99.90;;;;;;4976107;28;20466;-58
2021/12/18 07:12:22;;;;;;;17.33;12.90;;;4.60;99.90;;;;;;4976192;28;20197;-58
2021/12/18 07:14:48;;;;;;;16.30;11.20;;;4.70;99.90;;;;;;4976846;28;20236;-57
2021/12/18 07:17:13;;;;;;;16.77;11.70;;;4.60;99.90;;;;;;4975736;28;20216;-55
2021/12/18 07:19:39;;;;;;;16.80;11.60;;;4.70;99.90;;;;;;4994134;28;20181;-57
2021/12/18 07:22:05;;;;;;;17.93;11.93;;;4.90;99.90;;;;;;4995365;28;20173;-57
2021/12/18 07:24:31;;;;;;;20.20;14.50;;;5.00;99.90;;;;;;4995150;28;20176;-57
2021/12/18 07:26:57;;;;;;;19.77;13.20;;;4.80;99.90;;;;;;4995102;28;20432;-56
2021/12/18 07:29:23;;;;;;;19.03;12.40;;;4.50;99.90;;;;;;4991484;28;20192;-57
2021/12/18 07:31:50;;;;;;;15.67;10.80;;;4.50;99.90;;;;;;4974862;28;20405;-58
2021/12/18 07:34:15;;;;;;;16.77;12.23;;;4.80;99.90;;;;;;4975326;28;20176;-58
2021/12/18 07:36:41;;;;;;;16.50;11.40;;;4.80;99.90;;;;;;4975748;28;20543;-55
2021/12/18 07:39:07;;;;;;;17.07;12.97;;;5.10;99.90;;;;;;4975593;28;20682;-58
2021/12/18 07:41:33;;;;;;;18.17;12.20;;;5.10;99.90;;;;;;4975538;28;20541;-58
2021/12/18 07:43:59;;;;;;;16.90;11.40;;;5.10;99.90;;;;;;4975453;28;20206;-58
2021/12/18 07:46:24;;;;;;;17.60;12.67;;;5.20;99.90;;;;;;4973028;28;20951;-59
2021/12/18 07:48:50;;;;;;;16.57;11.87;;;5.20;99.90;;;;;;4982012;28;20180;-57
2021/12/18 07:51:16;;;;;;;15.90;11.80;;;5.00;99.90;;;;;;4981204;28;20196;-56
2021/12/18 07:53:41;;;;;;;18.97;12.87;;;4.70;99.90;;;;;;4974313;28;20525;-57
2021/12/18 07:56:09;;;;;;;17.20;12.03;;;4.60;99.90;;;;;;4974508;28;20460;-56
2021/12/18 07:58:36;;;;;;;19.60;13.90;;;4.60;99.90;;;;;;4974671;28;20233;-58
2021/12/18 08:01:02;;;;;;;15.43;11.70;;;4.80;99.90;;;;;;4975054;28;20405;-59
2021/12/18 08:03:28;;;;;;;19.40;12.37;;;4.90;99.90;;;;;;4974655;28;20534;-57
2021/12/18 08:05:54;;;;;;;20.27;13.60;;;4.80;99.90;;;;;;4975251;28;20417;-59
2021/12/18 08:08:19;;;;;;;18.23;12.73;;;4.90;99.90;;;;;;4974822;28;20619;-57
2021/12/18 08:10:45;;;;;;;21.00;12.83;;;4.90;99.90;;;;;;4975307;28;20236;-56
2021/12/18 08:13:11;;;;;;;17.33;13.80;;;5.10;99.90;;;;;;4972974;28;20658;-56
2021/12/18 08:15:37;;;;;;;18.93;12.43;;;5.00;99.90;;;;;;4975255;28;20207;-58
2021/12/18 08:18:06;;;;;;;16.93;12.40;;;4.90;99.90;;;;;;4979187;28;20219;-58
2021/12/18 08:20:32;;;;;;;51.47;32.63;;;4.90;99.90;;;;;;4994299;28;20165;-57
2021/12/18 08:22:58;;;;;;;48.13;33.97;;;5.10;99.90;;;;;;4994266;28;20955;-58
2021/12/18 08:25:26;;;;;;;25.40;17.47;;;5.30;99.90;;;;;;4994139;28;20408;-56
2021/12/18 08:27:51;;;;;;;22.20;13.90;;;5.40;99.90;;;;;;4994738;28;20435;-53
2021/12/18 08:30:17;;;;;;;20.70;13.97;;;5.20;99.90;;;;;;4993219;28;20422;-57
2021/12/18 08:32:43;;;;;;;22.73;13.30;;;5.10;99.90;;;;;;4994152;28;20160;-58
2021/12/18 08:35:09;;;;;;;23.93;14.87;;;4.90;99.90;;;;;;4993787;28;20229;-59
2021/12/18 08:37:36;;;;;;;21.60;14.83;;;4.90;99.90;;;;;;4993782;28;20258;-59
2021/12/18 08:40:02;;;;;;;21.80;14.33;;;4.90;99.90;;;;;;4994144;28;20877;-57
2021/12/18 08:42:27;;;;;;;23.13;15.47;;;5.00;99.90;;;;;;4993841;28;20485;-57
2021/12/18 08:44:53;;;;;;;21.97;14.70;;;5.00;99.90;;;;;;4994038;28;20866;-57
2021/12/18 08:47:19;;;;;;;20.27;11.60;;;5.20;99.90;;;;;;4993903;28;20753;-56
2021/12/18 08:49:45;;;;;;;21.53;13.50;;;5.10;99.90;;;;;;4975516;28;20276;-57
2021/12/18 08:52:11;;;;;;;22.13;14.40;;;5.10;99.90;;;;;;4973575;28;20423;-58
2021/12/18 08:54:37;;;;;;;20.93;13.87;;;5.20;99.90;;;;;;4974675;28;20918;-57
2021/12/18 08:57:02;;;;;;;18.80;13.70;;;5.20;99.90;;;;;;4974384;28;20216;-58
2021/12/18 08:59:28;;;;;;;23.17;15.10;;;5.20;99.90;;;;;;4974597;28;20197;-58
2021/12/18 09:01:54;;;;;;;19.10;13.83;;;5.20;99.90;;;;;;4974271;28;20600;-56
2021/12/18 09:04:20;;;;;;;22.67;14.60;;;5.30;99.90;;;;;;4973308;28;20185;-58
2021/12/18 09:06:45;;;;;;;19.20;13.60;;;5.30;99.90;;;;;;4956440;28;20672;-58
2021/12/18 09:09:11;;;;;;;18.93;13.37;;;5.30;99.90;;;;;;4955475;28;20425;-57
2021/12/18 09:11:37;;;;;;;20.57;13.60;;;5.20;99.90;;;;;;4958977;28;20186;-57
2021/12/18 09:14:03;;;;;;;20.27;13.90;;;5.30;99.90;;;;;;4958688;28;20830;-58
2021/12/18 09:16:31;;;;;;;20.80;13.63;;;5.50;99.90;;;;;;4958776;28;20260;-58
2021/12/18 09:18:57;;;;;;;22.20;14.30;;;5.70;99.90;;;;;;5015252;23;20705;-61
2021/12/18 09:21:23;;;;;;;21.00;14.20;;;5.80;99.90;;;;;;4996772;28;20408;-61
2021/12/18 09:23:49;;;;;;;20.20;13.53;;;5.80;99.90;;;;;;4988088;28;20169;-61
2021/12/18 09:26:14;;;;;;;19.93;13.70;;;5.70;99.90;;;;;;4968024;28;20182;-60
2021/12/18 09:28:40;;;;;;;17.70;12.83;;;5.30;99.90;;;;;;4976943;28;20693;-62
2021/12/18 09:31:06;;;;;;;19.20;13.50;;;5.40;99.90;;;;;;4977304;28;20177;-61
2021/12/18 09:33:31;;;;;;;20.23;14.17;;;5.40;99.90;;;;;;4977035;28;20545;-61
2021/12/18 09:35:57;;;;;;;19.07;13.30;;;5.30;99.90;;;;;;4963081;28;20341;-62
2021/12/18 09:38:23;;;;;;;22.83;16.40;;;5.40;99.90;;;;;;4957686;29;20186;-61
2021/12/18 09:40:49;;;;;;;18.03;13.20;;;5.20;99.90;;;;;;4958455;29;20198;-59
2021/12/18 09:43:14;;;;;;;21.23;14.43;;;5.30;99.90;;;;;;4958012;28;20171;-59
2021/12/18 09:45:40;;;;;;;19.57;13.27;;;5.50;99.90;;;;;;4957783;29;20929;-61
2021/12/18 09:48:06;;;;;;;19.23;13.87;;;5.30;99.90;;;;;;4961854;28;20202;-59
2021/12/18 09:50:35;;;;;;;19.23;14.03;;;5.10;99.90;;;;;;4956561;28;20177;-60
2021/12/18 09:53:01;;;;;;;19.97;14.03;;;4.90;99.90;;;;;;4956797;28;20406;-61
2021/12/18 09:55:26;;;;;;;15.40;12.67;;;4.90;99.90;;;;;;4957477;28;20416;-61
2021/12/18 09:57:52;;;;;;;19.97;13.60;;;5.20;99.90;;;;;;4957549;28;20436;-60
2021/12/18 10:00:21;;;;;;;17.90;13.50;;;5.20;99.90;;;;;;4957715;28;20166;-60
2021/12/18 10:02:47;;;;;;;20.13;14.10;;;5.30;99.90;;;;;;4957471;28;20229;-61
2021/12/18 10:05:21;;;;;;;25.97;15.73;;;5.00;99.90;;;;;;4957571;28;20887;-61
2021/12/18 10:08:09;;;;;;;19.20;13.00;;;4.90;99.90;;;;;;4957152;28;20424;-62
2021/12/18 10:10:37;;;;;;;20.20;14.17;;;5.00;99.90;;;;;;4957348;28;20402;-62
2021/12/18 10:13:05;;;;;;;18.40;13.30;;;5.00;99.90;;;;;;4957170;28;20409;-62
2021/12/18 10:15:32;;;;;;;15.30;11.77;;;5.10;99.90;;;;;;4957458;28;20846;-62
2021/12/18 10:18:05;;;;;;;17.00;12.50;;;5.30;99.90;;;;;;4964083;28;20547;-61
2021/12/18 10:20:31;;;;;;;16.80;12.70;;;5.40;99.90;;;;;;4976400;28;20783;-61
2021/12/18 10:23:05;;;;;;;17.53;12.73;;;5.40;99.90;;;;;;4975784;28;20405;-62
2021/12/18 10:25:38;;;;;;;18.83;12.57;;;5.40;99.90;;;;;;4976644;28;20142;-61
2021/12/18 10:28:13;;;;;;;17.47;12.83;;;5.40;99.90;;;;;;4976316;28;20420;-61
2021/12/18 10:30:47;;;;;;;17.10;13.40;;;4.90;99.90;;;;;;4976526;28;20397;-62
2021/12/18 10:33:14;;;;;;;16.73;12.70;;;5.00;99.90;;;;;;4976058;28;20400;-61
2021/12/18 10:35:51;;;;;;;18.40;12.67;;;5.00;99.90;;;;;;4976237;28;20452;-60
2021/12/18 10:38:50;;;;;;;19.07;12.70;;;5.00;99.90;;;;;;4976905;28;20859;-60
2021/12/18 10:41:26;;;;;;;19.10;12.87;;;5.00;99.90;;;;;;4977456;28;20391;-61
2021/12/18 10:43:59;;;;;;;16.77;12.97;;;5.10;99.90;;;;;;4976397;28;20391;-62
2021/12/18 10:46:26;;;;;;;15.77;12.30;;;5.10;99.90;;;;;;4976102;28;20389;-58
2021/12/18 10:48:59;;;;;;;14.70;11.00;;;5.20;99.90;;;;;;4963375;28;20439;-62
2021/12/18 10:51:27;;;;;;;16.50;11.67;;;5.40;99.90;;;;;;4954093;29;20409;-60
2021/12/18 10:54:02;;;;;;;17.70;12.80;;;5.30;99.90;;;;;;4955931;28;20426;-62
2021/12/18 10:56:37;;;;;;;17.07;12.10;;;5.30;99.90;;;;;;4956359;28;20492;-62
2021/12/18 10:59:06;;;;;;;15.97;11.90;;;5.40;99.90;;;;;;4956480;28;20437;-62
2021/12/18 11:01:36;;;;;;;18.17;12.27;;;5.20;99.90;;;;;;4957811;28;20449;-60
2021/12/18 11:04:03;;;;;;;15.90;12.00;;;4.90;99.90;;;;;;4956753;28;20422;-60
2021/12/18 11:06:32;;;;;;;14.47;11.57;;;4.70;99.90;;;;;;4957978;29;20410;-60
2021/12/18 11:09:13;;;;;;;16.87;11.57;;;5.00;99.90;;;;;;4958528;28;20513;-59
2021/12/18 11:14:16;;;;;;;17.70;12.00;;;5.40;99.90;;;;;;4957111;28;20501;-61
2021/12/18 11:16:48;;;;;;;21.20;12.90;;;5.50;99.90;;;;;;4956343;28;20450;-61
2021/12/18 11:19:16;;;;;;;19.33;13.93;;;5.70;99.90;;;;;;4973572;28;20972;-60
2021/12/18 11:21:44;;;;;;;14.90;11.40;;;5.90;99.90;;;;;;4975610;28;20408;-60
2021/12/18 11:24:11;;;;;;;19.23;12.13;;;6.10;99.90;;;;;;4975495;28;20936;-61
2021/12/18 11:26:41;;;;;;;16.00;11.60;;;6.20;99.90;;;;;;4972329;28;20521;-62
2021/12/18 11:29:13;;;;;;;14.33;11.10;;;6.00;99.90;;;;;;4956404;28;20430;-60
2021/12/18 11:31:41;;;;;;;15.70;11.53;;;5.70;99.90;;;;;;4956638;28;20422;-60
2021/12/18 11:34:07;;;;;;;17.43;12.03;;;5.30;99.90;;;;;;4955475;28;20410;-60
2021/12/18 11:36:33;;;;;;;16.10;11.70;;;5.20;99.90;;;;;;4956896;28;20453;-60
2021/12/18 11:39:00;;;;;;;15.40;10.33;;;5.20;99.90;;;;;;4956386;28;20476;-63
2021/12/18 11:41:26;;;;;;;14.13;10.70;;;5.50;99.90;;;;;;4956227;28;20633;-61
2021/12/18 11:43:51;;;;;;;17.10;13.10;;;5.70;99.90;;;;;;4946622;28;20860;-57
2021/12/18 11:46:37;;;;;;;15.30;10.70;;;5.40;99.90;;;;;;4936861;29;20656;-59
2021/12/18 11:49:10;;;;;;;16.40;11.40;;;5.40;99.90;;;;;;4968764;28;20194;-61
2021/12/18 11:51:37;;;;;;;14.33;11.10;;;5.60;99.90;;;;;;4977044;28;20436;-57
2021/12/18 11:54:06;;;;;;;14.60;10.63;;;5.40;99.90;;;;;;4969016;28;20421;-60
2021/12/18 11:56:49;;;;;;;17.67;12.33;;;5.30;99.90;;;;;;4955866;28;20528;-61
2021/12/18 11:59:36;;;;;;;15.43;11.50;;;5.60;99.90;;;;;;4955375;28;20426;-60
2021/12/18 12:02:02;;;;;;;16.60;10.80;;;5.80;99.90;;;;;;4955327;28;20395;-62
2021/12/18 12:04:47;;;;;;;17.73;12.63;;;5.90;99.90;;;;;;4955731;28;20477;-62
2021/12/18 12:07:21;;;;;;;14.70;11.70;;;6.10;99.90;;;;;;4955460;29;20676;-56
2021/12/18 12:10:48;;;;;;;13.83;11.03;;;6.00;99.90;;;;;;4955006;28;20485;-61
2021/12/18 12:13:13;;;;;;;12.50;10.00;;;6.00;99.90;;;;;;4955829;28;20481;-62
2021/12/18 12:15:51;;;;;;;15.63;11.30;;;6.00;99.90;;;;;;4955217;28;20402;-61
2021/12/18 12:18:18;;;;;;;15.23;10.90;;;6.10;99.90;;;;;;4967935;28;20213;-62
2021/12/18 12:20:50;;;;;;;13.43;10.23;;;6.10;99.90;;;;;;4955179;29;20461;-62
2021/12/18 12:23:16;;;;;;;14.87;11.27;;;6.40;99.90;;;;;;4955146;28;20401;-60
2021/12/18 12:25:50;;;;;;;15.00;10.70;;;6.40;99.90;;;;;;4956864;28;20422;-61
2021/12/18 12:28:22;;;;;;;16.03;12.00;;;6.10;99.90;;;;;;4974358;28;20966;-61
2021/12/18 12:30:49;;;;;;;16.23;11.47;;;6.10;99.90;;;;;;4974512;28;20892;-61
2021/12/18 12:33:27;;;;;;;15.20;11.93;;;6.10;99.90;;;;;;4974095;28;20413;-61
2021/12/18 12:36:05;;;;;;;13.97;11.40;;;6.20;99.90;;;;;;4974342;28;20456;-58
2021/12/18 12:38:43;;;;;;;16.30;12.20;;;6.60;99.90;;;;;;4974359;28;20460;-61
2021/12/18 12:41:28;;;;;;;16.43;12.77;;;6.60;99.90;;;;;;4963254;28;20411;-61
2021/12/18 12:44:14;;;;;;;16.97;12.80;;;6.20;99.90;;;;;;4954560;28;20413;-60
2021/12/18 12:46:40;;;;;;;15.83;11.40;;;6.20;99.90;;;;;;4958808;28;20482;-59
2021/12/18 12:49:10;;;;;;;13.20;10.93;;;6.20;99.90;;;;;;4958312;28;20517;-61
2021/12/18 12:51:57;;;;;;;14.97;13.30;;;6.30;99.90;;;;;;4958673;28;20402;-63
2021/12/18 12:54:42;;;;;;;16.73;12.93;;;6.30;99.90;;;;;;4959070;28;20418;-61
2021/12/18 12:57:30;;;;;;;15.83;12.93;;;6.40;99.90;;;;;;4972526;28;20464;-62
2021/12/18 12:59:58;;;;;;;16.60;12.10;;;6.50;99.90;;;;;;4977726;28;20412;-63
2021/12/18 13:02:29;;;;;;;15.13;12.10;;;6.50;99.90;;;;;;4975399;28;20410;-64
2021/12/18 13:05:04;;;;;;;19.40;13.70;;;6.90;99.90;;;;;;4958371;28;20418;-63
2021/12/18 13:07:29;;;;;;;19.60;13.57;;;6.70;99.90;;;;;;4958564;28;20430;-63
2021/12/18 13:09:55;;;;;;;17.00;12.97;;;7.10;99.90;;;;;;4958503;29;21128;-63
2021/12/18 13:12:21;;;;;;;14.07;11.90;;;7.20;99.90;;;;;;4958286;28;20528;-62
2021/12/18 13:14:47;;;;;;;16.43;12.97;;;7.50;99.90;;;;;;4958145;29;20469;-63
2021/12/18 13:17:25;;;;;;;16.13;12.97;;;7.70;99.90;;;;;;4958298;28;20213;-61
2021/12/18 13:19:57;;;;;;;19.40;14.20;;;7.40;99.90;;;;;;4958000;28;20407;-62
2021/12/18 13:22:28;;;;;;;18.13;14.40;;;7.40;99.90;;;;;;4957770;29;20491;-63
2021/12/18 13:25:09;;;;;;;19.40;14.87;;;7.60;99.90;;;;;;4958214;28;20396;-63
2021/12/18 13:27:37;;;;;;;16.27;13.43;;;7.40;99.90;;;;;;4975061;28;20506;-61
2021/12/18 13:30:10;;;;;;;18.73;14.23;;;7.50;99.90;;;;;;4975925;28;20510;-63
2021/12/18 13:32:36;;;;;;;18.10;14.03;;;7.40;99.90;;;;;;4974868;28;20416;-63
2021/12/18 13:35:11;;;;;;;15.17;12.17;;;7.40;99.90;;;;;;4954651;28;20467;-62
2021/12/18 13:37:37;;;;;;;15.70;11.93;;;6.80;99.90;;;;;;4957902;28;20246;-63